sensor_id;sensor_type;location;lat;lon;timestamp;P1;durP1;ratioP1;P2;durP2;ratioP2
18407;SDS011;9330;52.210;21.174;2023-02-01T00:00:15;10.70;;;8.70;;
18407;SDS011;9330;52.210;21.174;2023-02-01T00:02:42;13.90;;;9.25;;
18407;SDS011;9330;52.210;21.174;2023-02-01T00:05:09;14.23;;;10.15;;
18407;SDS011;9330;52.210;21.174;2023-02-01T00:07:37;11.82;;;9.02;;
18407;SDS011;9330;52.210;21.174;2023-02-01T00:10:05;13.48;;;8.82;;
18407;SDS011;9330;52.210;21.174;2023-02-01T00:12:33;10.35;;;7.78;;
18407;SDS011;9330;52.210;21.174;2023-02-01T00:15:00;12.27;;;8.73;;
18407;SDS011;9330;52.210;21.174;2023-02-01T00:17:28;13.75;;;8.73;;
18407;SDS011;9330;52.210;21.174;2023-02-01T00:19:55;14.05;;;7.97;;
18407;SDS011;9330;52.210;21.174;2023-02-01T00:22:22;11.48;;;7.72;;
18407;SDS011;9330;52.210;21.174;2023-02-01T00:24:49;10.25;;;7.68;;
18407;SDS011;9330;52.210;21.174;2023-02-01T00:27:15;9.25;;;7.40;;
18407;SDS011;9330;52.210;21.174;2023-02-01T00:29:45;10.70;;;8.25;;
18407;SDS011;9330;52.210;21.174;2023-02-01T00:32:12;11.63;;;7.25;;
18407;SDS011;9330;52.210;21.174;2023-02-01T00:34:41;12.40;;;6.93;;
18407;SDS011;9330;52.210;21.174;2023-02-01T00:37:08;6.45;;;5.82;;
18407;SDS011;9330;52.210;21.174;2023-02-01T00:39:35;10.10;;;6.93;;
18407;SDS011;9330;52.210;21.174;2023-02-01T00:42:02;6.30;;;5.40;;
18407;SDS011;9330;52.210;21.174;2023-02-01T00:44:29;6.50;;;5.57;;
18407;SDS011;9330;52.210;21.174;2023-02-01T00:46:59;5.40;;;4.90;;
18407;SDS011;9330;52.210;21.174;2023-02-01T00:49:26;5.93;;;4.38;;
18407;SDS011;9330;52.210;21.174;2023-02-01T00:51:55;5.40;;;4.28;;
18407;SDS011;9330;52.210;21.174;2023-02-01T00:54:22;6.07;;;4.70;;
18407;SDS011;9330;52.210;21.174;2023-02-01T00:56:49;7.20;;;3.95;;
18407;SDS011;9330;52.210;21.174;2023-02-01T00:59:16;4.07;;;3.42;;
18407;SDS011;9330;52.210;21.174;2023-02-01T01:01:43;4.55;;;3.97;;
18407;SDS011;9330;52.210;21.174;2023-02-01T01:04:09;3.95;;;3.28;;
18407;SDS011;9330;52.210;21.174;2023-02-01T01:06:36;4.60;;;3.00;;
18407;SDS011;9330;52.210;21.174;2023-02-01T01:09:05;5.13;;;3.33;;
18407;SDS011;9330;52.210;21.174;2023-02-01T01:11:35;5.97;;;2.67;;
18407;SDS011;9330;52.210;21.174;2023-02-01T01:14:03;5.22;;;3.28;;
18407;SDS011;9330;52.210;21.174;2023-02-01T01:16:31;5.03;;;2.92;;
18407;SDS011;9330;52.210;21.174;2023-02-01T01:18:58;5.75;;;2.80;;
18407;SDS011;9330;52.210;21.174;2023-02-01T01:21:26;5.20;;;2.83;;
18407;SDS011;9330;52.210;21.174;2023-02-01T01:23:53;3.10;;;2.00;;
18407;SDS011;9330;52.210;21.174;2023-02-01T01:26:22;5.18;;;2.40;;
18407;SDS011;9330;52.210;21.174;2023-02-01T01:28:50;4.20;;;1.50;;
18407;SDS011;9330;52.210;21.174;2023-02-01T01:31:18;5.95;;;2.10;;
18407;SDS011;9330;52.210;21.174;2023-02-01T01:33:47;4.20;;;1.75;;
18407;SDS011;9330;52.210;21.174;2023-02-01T01:36:16;4.07;;;1.80;;
18407;SDS011;9330;52.210;21.174;2023-02-01T01:38:43;4.47;;;1.55;;
18407;SDS011;9330;52.210;21.174;2023-02-01T01:41:12;4.05;;;1.60;;
18407;SDS011;9330;52.210;21.174;2023-02-01T01:43:56;2.22;;;1.30;;
18407;SDS011;9330;52.210;21.174;2023-02-01T01:46:25;4.25;;;1.30;;
18407;SDS011;9330;52.210;21.174;2023-02-01T01:48:55;3.75;;;1.38;;
18407;SDS011;9330;52.210;21.174;2023-02-01T01:51:27;3.03;;;1.33;;
18407;SDS011;9330;52.210;21.174;2023-02-01T01:53:58;5.90;;;1.83;;
18407;SDS011;9330;52.210;21.174;2023-02-01T01:56:30;4.97;;;1.52;;
18407;SDS011;9330;52.210;21.174;2023-02-01T01:59:02;4.10;;;1.70;;
18407;SDS011;9330;52.210;21.174;2023-02-01T02:01:30;4.70;;;1.38;;
18407;SDS011;9330;52.210;21.174;2023-02-01T02:03:58;4.95;;;1.73;;
18407;SDS011;9330;52.210;21.174;2023-02-01T02:06:28;6.78;;;1.63;;
18407;SDS011;9330;52.210;21.174;2023-02-01T02:08:59;4.88;;;1.70;;
18407;SDS011;9330;52.210;21.174;2023-02-01T02:11:27;4.38;;;1.33;;
18407;SDS011;9330;52.210;21.174;2023-02-01T02:13:55;6.47;;;1.92;;
18407;SDS011;9330;52.210;21.174;2023-02-01T02:19:36;5.60;;;2.35;;
18407;SDS011;9330;52.210;21.174;2023-02-01T02:22:37;5.95;;;2.08;;
18407;SDS011;9330;52.210;21.174;2023-02-01T02:25:28;4.70;;;1.70;;
18407;SDS011;9330;52.210;21.174;2023-02-01T02:28:14;5.30;;;2.00;;
18407;SDS011;9330;52.210;21.174;2023-02-01T02:31:01;6.40;;;2.35;;
18407;SDS011;9330;52.210;21.174;2023-02-01T02:33:53;9.00;;;2.25;;
18407;SDS011;9330;52.210;21.174;2023-02-01T02:36:34;8.68;;;2.47;;
18407;SDS011;9330;52.210;21.174;2023-02-01T02:39:06;8.57;;;2.33;;
18407;SDS011;9330;52.210;21.174;2023-02-01T02:41:36;5.65;;;2.45;;
18407;SDS011;9330;52.210;21.174;2023-02-01T02:44:34;6.53;;;2.15;;
18407;SDS011;9330;52.210;21.174;2023-02-01T02:47:27;8.13;;;2.40;;
18407;SDS011;9330;52.210;21.174;2023-02-01T02:50:04;6.32;;;2.17;;
18407;SDS011;9330;52.210;21.174;2023-02-01T02:52:57;10.63;;;3.13;;
18407;SDS011;9330;52.210;21.174;2023-02-01T02:55:46;6.97;;;2.45;;
18407;SDS011;9330;52.210;21.174;2023-02-01T02:58:15;11.13;;;2.70;;
18407;SDS011;9330;52.210;21.174;2023-02-01T03:01:00;5.70;;;2.10;;
18407;SDS011;9330;52.210;21.174;2023-02-01T03:03:46;8.07;;;2.40;;
18407;SDS011;9330;52.210;21.174;2023-02-01T03:06:36;9.68;;;2.47;;
18407;SDS011;9330;52.210;21.174;2023-02-01T03:09:06;6.63;;;2.35;;
18407;SDS011;9330;52.210;21.174;2023-02-01T03:11:37;10.30;;;2.80;;
18407;SDS011;9330;52.210;21.174;2023-02-01T03:14:26;14.60;;;3.25;;
18407;SDS011;9330;52.210;21.174;2023-02-01T03:16:56;7.55;;;2.60;;
18407;SDS011;9330;52.210;21.174;2023-02-01T03:19:29;11.43;;;2.78;;
18407;SDS011;9330;52.210;21.174;2023-02-01T03:22:01;7.97;;;2.67;;
18407;SDS011;9330;52.210;21.174;2023-02-01T03:24:31;11.73;;;2.80;;
18407;SDS011;9330;52.210;21.174;2023-02-01T03:27:02;7.60;;;2.08;;
18407;SDS011;9330;52.210;21.174;2023-02-01T03:29:36;8.45;;;2.58;;
18407;SDS011;9330;52.210;21.174;2023-02-01T03:32:07;12.07;;;2.75;;
18407;SDS011;9330;52.210;21.174;2023-02-01T03:34:35;11.75;;;3.40;;
18407;SDS011;9330;52.210;21.174;2023-02-01T03:37:04;7.45;;;2.22;;
18407;SDS011;9330;52.210;21.174;2023-02-01T03:39:35;7.05;;;2.53;;
18407;SDS011;9330;52.210;21.174;2023-02-01T03:42:06;8.88;;;2.28;;
18407;SDS011;9330;52.210;21.174;2023-02-01T03:44:40;8.57;;;2.40;;
18407;SDS011;9330;52.210;21.174;2023-02-01T03:47:15;10.10;;;2.35;;
18407;SDS011;9330;52.210;21.174;2023-02-01T03:49:45;12.15;;;3.00;;
18407;SDS011;9330;52.210;21.174;2023-02-01T03:52:18;8.93;;;2.25;;
18407;SDS011;9330;52.210;21.174;2023-02-01T03:54:48;8.05;;;2.30;;
18407;SDS011;9330;52.210;21.174;2023-02-01T03:57:17;8.30;;;2.78;;
18407;SDS011;9330;52.210;21.174;2023-02-01T03:59:50;11.57;;;2.88;;
18407;SDS011;9330;52.210;21.174;2023-02-01T04:02:17;9.00;;;2.85;;
18407;SDS011;9330;52.210;21.174;2023-02-01T04:04:44;4.93;;;2.38;;
18407;SDS011;9330;52.210;21.174;2023-02-01T04:07:11;10.35;;;3.00;;
18407;SDS011;9330;52.210;21.174;2023-02-01T04:09:40;8.32;;;2.60;;
18407;SDS011;9330;52.210;21.174;2023-02-01T04:12:07;8.20;;;2.38;;
18407;SDS011;9330;52.210;21.174;2023-02-01T04:14:34;10.07;;;2.33;;
18407;SDS011;9330;52.210;21.174;2023-02-01T04:17:01;11.48;;;3.13;;
18407;SDS011;9330;52.210;21.174;2023-02-01T04:19:28;9.35;;;2.65;;
18407;SDS011;9330;52.210;21.174;2023-02-01T04:21:55;11.25;;;3.03;;
18407;SDS011;9330;52.210;21.174;2023-02-01T04:24:21;11.90;;;3.20;;
18407;SDS011;9330;52.210;21.174;2023-02-01T04:26:50;9.23;;;2.47;;
18407;SDS011;9330;52.210;21.174;2023-02-01T04:29:17;9.10;;;2.97;;
18407;SDS011;9330;52.210;21.174;2023-02-01T04:31:44;10.55;;;2.40;;
18407;SDS011;9330;52.210;21.174;2023-02-01T04:34:11;8.77;;;2.72;;
18407;SDS011;9330;52.210;21.174;2023-02-01T04:36:38;8.70;;;2.90;;
18407;SDS011;9330;52.210;21.174;2023-02-01T04:39:05;9.68;;;2.63;;
18407;SDS011;9330;52.210;21.174;2023-02-01T04:41:32;13.55;;;3.10;;
18407;SDS011;9330;52.210;21.174;2023-02-01T04:44:01;8.30;;;2.90;;
18407;SDS011;9330;52.210;21.174;2023-02-01T04:46:28;12.05;;;2.65;;
18407;SDS011;9330;52.210;21.174;2023-02-01T04:48:56;10.57;;;2.85;;
18407;SDS011;9330;52.210;21.174;2023-02-01T04:51:22;15.98;;;2.92;;
18407;SDS011;9330;52.210;21.174;2023-02-01T04:53:50;11.90;;;2.60;;
18407;SDS011;9330;52.210;21.174;2023-02-01T04:56:17;9.18;;;2.90;;
18407;SDS011;9330;52.210;21.174;2023-02-01T04:58:43;10.18;;;2.67;;
18407;SDS011;9330;52.210;21.174;2023-02-01T05:01:12;9.07;;;2.90;;
18407;SDS011;9330;52.210;21.174;2023-02-01T05:03:39;11.93;;;2.70;;
18407;SDS011;9330;52.210;21.174;2023-02-01T05:06:05;11.73;;;3.33;;
18407;SDS011;9330;52.210;21.174;2023-02-01T05:08:33;12.75;;;2.60;;
18407;SDS011;9330;52.210;21.174;2023-02-01T05:10:59;11.23;;;2.65;;
18407;SDS011;9330;52.210;21.174;2023-02-01T05:13:28;8.10;;;2.58;;
18407;SDS011;9330;52.210;21.174;2023-02-01T05:16:14;11.07;;;3.20;;
18407;SDS011;9330;52.210;21.174;2023-02-01T05:18:41;11.60;;;2.95;;
18407;SDS011;9330;52.210;21.174;2023-02-01T05:21:08;8.60;;;2.50;;
18407;SDS011;9330;52.210;21.174;2023-02-01T05:23:36;13.55;;;2.78;;
18407;SDS011;9330;52.210;21.174;2023-02-01T05:26:23;12.23;;;2.65;;
18407;SDS011;9330;52.210;21.174;2023-02-01T05:28:50;8.95;;;2.65;;
18407;SDS011;9330;52.210;21.174;2023-02-01T05:31:19;7.35;;;2.28;;
18407;SDS011;9330;52.210;21.174;2023-02-01T05:33:46;11.38;;;3.08;;
18407;SDS011;9330;52.210;21.174;2023-02-01T05:36:13;10.70;;;2.70;;
18407;SDS011;9330;52.210;21.174;2023-02-01T05:38:40;12.75;;;2.90;;
18407;SDS011;9330;52.210;21.174;2023-02-01T05:41:07;12.70;;;2.75;;
18407;SDS011;9330;52.210;21.174;2023-02-01T05:43:34;10.95;;;3.00;;
18407;SDS011;9330;52.210;21.174;2023-02-01T05:46:01;8.30;;;2.55;;
18407;SDS011;9330;52.210;21.174;2023-02-01T05:48:30;10.50;;;2.67;;
18407;SDS011;9330;52.210;21.174;2023-02-01T05:50:57;9.43;;;2.53;;
18407;SDS011;9330;52.210;21.174;2023-02-01T05:53:23;11.27;;;2.67;;
18407;SDS011;9330;52.210;21.174;2023-02-01T05:55:50;11.30;;;2.45;;
18407;SDS011;9330;52.210;21.174;2023-02-01T05:58:17;11.50;;;2.92;;
18407;SDS011;9330;52.210;21.174;2023-02-01T06:00:44;10.13;;;2.72;;
18407;SDS011;9330;52.210;21.174;2023-02-01T06:03:11;10.15;;;2.95;;
18407;SDS011;9330;52.210;21.174;2023-02-01T06:05:39;7.60;;;2.67;;
18407;SDS011;9330;52.210;21.174;2023-02-01T06:08:06;14.35;;;2.97;;
18407;SDS011;9330;52.210;21.174;2023-02-01T06:10:34;13.27;;;2.92;;
18407;SDS011;9330;52.210;21.174;2023-02-01T06:13:00;11.40;;;2.72;;
18407;SDS011;9330;52.210;21.174;2023-02-01T06:15:28;12.85;;;3.15;;
18407;SDS011;9330;52.210;21.174;2023-02-01T06:17:55;9.57;;;2.53;;
18407;SDS011;9330;52.210;21.174;2023-02-01T06:20:22;17.73;;;3.10;;
18407;SDS011;9330;52.210;21.174;2023-02-01T06:22:51;10.63;;;3.25;;
18407;SDS011;9330;52.210;21.174;2023-02-01T06:25:18;10.13;;;2.75;;
18407;SDS011;9330;52.210;21.174;2023-02-01T06:27:46;13.07;;;2.90;;
18407;SDS011;9330;52.210;21.174;2023-02-01T06:30:13;11.00;;;3.20;;
18407;SDS011;9330;52.210;21.174;2023-02-01T06:32:40;10.90;;;2.63;;
18407;SDS011;9330;52.210;21.174;2023-02-01T06:35:08;8.43;;;2.63;;
18407;SDS011;9330;52.210;21.174;2023-02-01T06:37:36;15.20;;;2.97;;
18407;SDS011;9330;52.210;21.174;2023-02-01T06:40:05;8.98;;;2.50;;
18407;SDS011;9330;52.210;21.174;2023-02-01T06:42:33;10.38;;;2.83;;
18407;SDS011;9330;52.210;21.174;2023-02-01T06:45:01;12.18;;;3.08;;
18407;SDS011;9330;52.210;21.174;2023-02-01T06:47:27;8.10;;;2.95;;
18407;SDS011;9330;52.210;21.174;2023-02-01T06:49:54;10.82;;;3.20;;
18407;SDS011;9330;52.210;21.174;2023-02-01T06:52:21;11.82;;;2.75;;
18407;SDS011;9330;52.210;21.174;2023-02-01T06:54:48;10.43;;;2.83;;
18407;SDS011;9330;52.210;21.174;2023-02-01T06:57:16;8.48;;;2.85;;
18407;SDS011;9330;52.210;21.174;2023-02-01T06:59:43;11.45;;;2.95;;
18407;SDS011;9330;52.210;21.174;2023-02-01T07:02:10;9.63;;;2.90;;
18407;SDS011;9330;52.210;21.174;2023-02-01T07:04:37;7.57;;;2.50;;
18407;SDS011;9330;52.210;21.174;2023-02-01T07:07:05;11.38;;;2.83;;
18407;SDS011;9330;52.210;21.174;2023-02-01T07:09:32;12.93;;;3.45;;
18407;SDS011;9330;52.210;21.174;2023-02-01T07:11:58;10.77;;;3.60;;
18407;SDS011;9330;52.210;21.174;2023-02-01T07:14:27;10.27;;;2.63;;
18407;SDS011;9330;52.210;21.174;2023-02-01T07:16:54;12.63;;;3.08;;
18407;SDS011;9330;52.210;21.174;2023-02-01T07:19:20;13.20;;;3.10;;
18407;SDS011;9330;52.210;21.174;2023-02-01T07:21:47;8.80;;;2.60;;
18407;SDS011;9330;52.210;21.174;2023-02-01T07:24:14;15.68;;;3.60;;
18407;SDS011;9330;52.210;21.174;2023-02-01T07:26:41;10.38;;;2.88;;
18407;SDS011;9330;52.210;21.174;2023-02-01T07:29:08;13.35;;;2.97;;
18407;SDS011;9330;52.210;21.174;2023-02-01T07:31:36;9.05;;;3.38;;
18407;SDS011;9330;52.210;21.174;2023-02-01T07:34:03;12.50;;;3.28;;
18407;SDS011;9330;52.210;21.174;2023-02-01T07:36:30;7.68;;;2.50;;
18407;SDS011;9330;52.210;21.174;2023-02-01T07:38:58;12.00;;;3.95;;
18407;SDS011;9330;52.210;21.174;2023-02-01T07:41:25;14.25;;;3.33;;
18407;SDS011;9330;52.210;21.174;2023-02-01T07:43:52;12.00;;;3.90;;
18407;SDS011;9330;52.210;21.174;2023-02-01T07:46:19;11.10;;;3.95;;
18407;SDS011;9330;52.210;21.174;2023-02-01T07:48:48;13.55;;;3.30;;
18407;SDS011;9330;52.210;21.174;2023-02-01T07:51:16;13.00;;;3.15;;
18407;SDS011;9330;52.210;21.174;2023-02-01T07:53:43;10.65;;;2.95;;
18407;SDS011;9330;52.210;21.174;2023-02-01T07:56:11;10.48;;;3.15;;
18407;SDS011;9330;52.210;21.174;2023-02-01T07:58:40;11.13;;;3.45;;
18407;SDS011;9330;52.210;21.174;2023-02-01T08:01:11;14.57;;;3.30;;
18407;SDS011;9330;52.210;21.174;2023-02-01T08:03:47;15.43;;;3.35;;
18407;SDS011;9330;52.210;21.174;2023-02-01T08:06:15;11.88;;;2.90;;
18407;SDS011;9330;52.210;21.174;2023-02-01T08:08:42;9.38;;;3.25;;
18407;SDS011;9330;52.210;21.174;2023-02-01T08:11:11;11.77;;;3.33;;
18407;SDS011;9330;52.210;21.174;2023-02-01T08:13:39;11.27;;;3.53;;
18407;SDS011;9330;52.210;21.174;2023-02-01T08:16:07;10.95;;;3.28;;
18407;SDS011;9330;52.210;21.174;2023-02-01T08:18:36;13.52;;;3.58;;
18407;SDS011;9330;52.210;21.174;2023-02-01T08:21:06;10.63;;;3.17;;
18407;SDS011;9330;52.210;21.174;2023-02-01T08:23:34;13.88;;;3.03;;
18407;SDS011;9330;52.210;21.174;2023-02-01T08:26:06;10.77;;;3.25;;
18407;SDS011;9330;52.210;21.174;2023-02-01T08:28:33;16.10;;;3.67;;
18407;SDS011;9330;52.210;21.174;2023-02-01T08:31:03;10.80;;;3.50;;
18407;SDS011;9330;52.210;21.174;2023-02-01T08:33:31;8.02;;;3.10;;
18407;SDS011;9330;52.210;21.174;2023-02-01T08:36:00;11.68;;;3.33;;
18407;SDS011;9330;52.210;21.174;2023-02-01T08:38:29;10.88;;;2.88;;
18407;SDS011;9330;52.210;21.174;2023-02-01T08:40:55;13.40;;;3.10;;
18407;SDS011;9330;52.210;21.174;2023-02-01T08:43:23;10.35;;;3.33;;
18407;SDS011;9330;52.210;21.174;2023-02-01T08:45:50;10.68;;;2.80;;
18407;SDS011;9330;52.210;21.174;2023-02-01T08:48:20;9.13;;;3.10;;
18407;SDS011;9330;52.210;21.174;2023-02-01T08:50:47;16.90;;;4.00;;
18407;SDS011;9330;52.210;21.174;2023-02-01T08:53:14;11.30;;;2.95;;
18407;SDS011;9330;52.210;21.174;2023-02-01T08:55:42;11.43;;;3.10;;
18407;SDS011;9330;52.210;21.174;2023-02-01T08:58:11;11.32;;;3.80;;
18407;SDS011;9330;52.210;21.174;2023-02-01T09:00:38;13.88;;;3.80;;
18407;SDS011;9330;52.210;21.174;2023-02-01T09:03:07;14.43;;;3.72;;
18407;SDS011;9330;52.210;21.174;2023-02-01T09:05:36;16.88;;;3.65;;
18407;SDS011;9330;52.210;21.174;2023-02-01T09:08:03;10.48;;;3.38;;
18407;SDS011;9330;52.210;21.174;2023-02-01T09:10:31;14.23;;;3.85;;
18407;SDS011;9330;52.210;21.174;2023-02-01T09:13:00;10.50;;;3.63;;
18407;SDS011;9330;52.210;21.174;2023-02-01T09:15:28;11.15;;;3.55;;
18407;SDS011;9330;52.210;21.174;2023-02-01T09:17:55;12.82;;;3.42;;
18407;SDS011;9330;52.210;21.174;2023-02-01T09:20:22;12.35;;;3.80;;
18407;SDS011;9330;52.210;21.174;2023-02-01T09:22:49;12.10;;;3.70;;
18407;SDS011;9330;52.210;21.174;2023-02-01T09:25:16;11.52;;;3.25;;
18407;SDS011;9330;52.210;21.174;2023-02-01T09:27:43;12.93;;;3.53;;
18407;SDS011;9330;52.210;21.174;2023-02-01T09:30:12;11.32;;;3.88;;
18407;SDS011;9330;52.210;21.174;2023-02-01T09:32:39;13.93;;;5.22;;
18407;SDS011;9330;52.210;21.174;2023-02-01T09:35:06;13.23;;;3.83;;
18407;SDS011;9330;52.210;21.174;2023-02-01T09:37:33;13.73;;;4.40;;
18407;SDS011;9330;52.210;21.174;2023-02-01T09:40:01;15.63;;;5.00;;
18407;SDS011;9330;52.210;21.174;2023-02-01T09:45:29;14.55;;;4.22;;
18407;SDS011;9330;52.210;21.174;2023-02-01T09:48:05;15.63;;;3.65;;
18407;SDS011;9330;52.210;21.174;2023-02-01T09:50:38;8.48;;;3.15;;
18407;SDS011;9330;52.210;21.174;2023-02-01T09:53:10;10.65;;;3.50;;
18407;SDS011;9330;52.210;21.174;2023-02-01T09:55:44;13.00;;;3.45;;
18407;SDS011;9330;52.210;21.174;2023-02-01T09:58:13;16.80;;;4.18;;
18407;SDS011;9330;52.210;21.174;2023-02-01T10:00:47;12.70;;;3.70;;
18407;SDS011;9330;52.210;21.174;2023-02-01T10:03:18;9.00;;;2.53;;
18407;SDS011;9330;52.210;21.174;2023-02-01T10:05:54;11.43;;;3.92;;
18407;SDS011;9330;52.210;21.174;2023-02-01T10:08:41;11.52;;;3.20;;
18407;SDS011;9330;52.210;21.174;2023-02-01T10:11:24;9.98;;;3.35;;
18407;SDS011;9330;52.210;21.174;2023-02-01T10:14:13;13.13;;;3.60;;
18407;SDS011;9330;52.210;21.174;2023-02-01T10:16:54;9.63;;;3.95;;
18407;SDS011;9330;52.210;21.174;2023-02-01T10:19:31;10.05;;;3.75;;
18407;SDS011;9330;52.210;21.174;2023-02-01T10:22:05;10.63;;;3.63;;
18407;SDS011;9330;52.210;21.174;2023-02-01T10:24:39;17.65;;;4.28;;
18407;SDS011;9330;52.210;21.174;2023-02-01T10:27:13;11.45;;;3.67;;
18407;SDS011;9330;52.210;21.174;2023-02-01T10:29:44;12.85;;;4.10;;
18407;SDS011;9330;52.210;21.174;2023-02-01T10:32:16;11.52;;;3.15;;
18407;SDS011;9330;52.210;21.174;2023-02-01T10:34:46;13.25;;;3.28;;
18407;SDS011;9330;52.210;21.174;2023-02-01T10:37:20;13.00;;;3.30;;
18407;SDS011;9330;52.210;21.174;2023-02-01T10:39:52;10.27;;;2.97;;
18407;SDS011;9330;52.210;21.174;2023-02-01T10:42:24;8.20;;;3.20;;
18407;SDS011;9330;52.210;21.174;2023-02-01T10:44:53;12.02;;;3.35;;
18407;SDS011;9330;52.210;21.174;2023-02-01T10:47:24;11.38;;;3.42;;
18407;SDS011;9330;52.210;21.174;2023-02-01T10:49:54;11.68;;;3.65;;
18407;SDS011;9330;52.210;21.174;2023-02-01T10:52:28;9.48;;;3.20;;
18407;SDS011;9330;52.210;21.174;2023-02-01T10:57:55;8.82;;;3.20;;
18407;SDS011;9330;52.210;21.174;2023-02-01T11:00:24;12.73;;;3.70;;
18407;SDS011;9330;52.210;21.174;2023-02-01T11:02:52;10.20;;;3.13;;
18407;SDS011;9330;52.210;21.174;2023-02-01T11:05:21;9.85;;;4.05;;
18407;SDS011;9330;52.210;21.174;2023-02-01T11:07:49;9.07;;;3.38;;
18407;SDS011;9330;52.210;21.174;2023-02-01T11:10:36;11.27;;;4.00;;
18407;SDS011;9330;52.210;21.174;2023-02-01T11:13:05;9.70;;;3.78;;
18407;SDS011;9330;52.210;21.174;2023-02-01T11:15:38;10.38;;;3.70;;
18407;SDS011;9330;52.210;21.174;2023-02-01T11:18:16;12.88;;;4.10;;
18407;SDS011;9330;52.210;21.174;2023-02-01T11:20:45;11.23;;;3.50;;
18407;SDS011;9330;52.210;21.174;2023-02-01T11:23:17;14.00;;;3.92;;
18407;SDS011;9330;52.210;21.174;2023-02-01T11:25:49;12.20;;;3.85;;
18407;SDS011;9330;52.210;21.174;2023-02-01T11:28:20;15.27;;;3.97;;
18407;SDS011;9330;52.210;21.174;2023-02-01T11:30:49;15.35;;;4.07;;
18407;SDS011;9330;52.210;21.174;2023-02-01T11:33:22;10.88;;;3.63;;
18407;SDS011;9330;52.210;21.174;2023-02-01T11:35:55;10.32;;;3.08;;
18407;SDS011;9330;52.210;21.174;2023-02-01T11:38:29;11.18;;;3.55;;
18407;SDS011;9330;52.210;21.174;2023-02-01T11:41:10;12.40;;;3.80;;
18407;SDS011;9330;52.210;21.174;2023-02-01T11:43:49;10.88;;;3.97;;
18407;SDS011;9330;52.210;21.174;2023-02-01T11:46:19;9.60;;;3.60;;
18407;SDS011;9330;52.210;21.174;2023-02-01T11:48:52;10.77;;;3.08;;
18407;SDS011;9330;52.210;21.174;2023-02-01T11:54:20;14.35;;;4.57;;
18407;SDS011;9330;52.210;21.174;2023-02-01T11:56:59;11.50;;;3.88;;
18407;SDS011;9330;52.210;21.174;2023-02-01T11:59:47;14.73;;;3.65;;
18407;SDS011;9330;52.210;21.174;2023-02-01T12:02:37;9.60;;;3.80;;
18407;SDS011;9330;52.210;21.174;2023-02-01T12:05:25;8.20;;;3.17;;
18407;SDS011;9330;52.210;21.174;2023-02-01T12:08:10;14.32;;;3.95;;
18407;SDS011;9330;52.210;21.174;2023-02-01T12:11:02;9.88;;;3.70;;
18407;SDS011;9330;52.210;21.174;2023-02-01T12:13:45;9.40;;;3.10;;
18407;SDS011;9330;52.210;21.174;2023-02-01T12:16:23;11.68;;;3.38;;
18407;SDS011;9330;52.210;21.174;2023-02-01T12:19:15;7.45;;;3.10;;
18407;SDS011;9330;52.210;21.174;2023-02-01T12:21:58;16.33;;;5.88;;
18407;SDS011;9330;52.210;21.174;2023-02-01T12:24:44;15.57;;;4.75;;
18407;SDS011;9330;52.210;21.174;2023-02-01T12:30:34;10.18;;;4.00;;
18407;SDS011;9330;52.210;21.174;2023-02-01T12:33:15;11.52;;;4.07;;
18407;SDS011;9330;52.210;21.174;2023-02-01T12:35:55;15.07;;;4.43;;
18407;SDS011;9330;52.210;21.174;2023-02-01T12:38:36;13.15;;;4.57;;
18407;SDS011;9330;52.210;21.174;2023-02-01T12:41:15;16.58;;;4.90;;
18407;SDS011;9330;52.210;21.174;2023-02-01T12:43:56;14.13;;;4.57;;
18407;SDS011;9330;52.210;21.174;2023-02-01T12:46:27;14.95;;;4.10;;
18407;SDS011;9330;52.210;21.174;2023-02-01T12:49:00;12.32;;;4.63;;
18407;SDS011;9330;52.210;21.174;2023-02-01T12:51:33;15.18;;;4.70;;
18407;SDS011;9330;52.210;21.174;2023-02-01T12:54:04;13.50;;;4.60;;
18407;SDS011;9330;52.210;21.174;2023-02-01T12:56:38;13.75;;;4.45;;
18407;SDS011;9330;52.210;21.174;2023-02-01T12:59:12;11.73;;;4.30;;
18407;SDS011;9330;52.210;21.174;2023-02-01T13:01:45;17.25;;;4.70;;
18407;SDS011;9330;52.210;21.174;2023-02-01T13:04:18;15.45;;;4.35;;
18407;SDS011;9330;52.210;21.174;2023-02-01T13:06:51;13.75;;;4.70;;
18407;SDS011;9330;52.210;21.174;2023-02-01T13:09:26;15.20;;;5.20;;
18407;SDS011;9330;52.210;21.174;2023-02-01T13:12:06;14.02;;;4.53;;
18407;SDS011;9330;52.210;21.174;2023-02-01T13:14:40;16.27;;;5.38;;
18407;SDS011;9330;52.210;21.174;2023-02-01T13:17:12;12.93;;;4.28;;
18407;SDS011;9330;52.210;21.174;2023-02-01T13:19:43;17.15;;;5.05;;
18407;SDS011;9330;52.210;21.174;2023-02-01T13:22:13;11.45;;;3.58;;
18407;SDS011;9330;52.210;21.174;2023-02-01T13:24:45;13.35;;;4.30;;
18407;SDS011;9330;52.210;21.174;2023-02-01T13:27:15;10.80;;;4.38;;
18407;SDS011;9330;52.210;21.174;2023-02-01T13:29:45;11.63;;;4.03;;
18407;SDS011;9330;52.210;21.174;2023-02-01T13:35:24;10.90;;;4.07;;
18407;SDS011;9330;52.210;21.174;2023-02-01T13:38:09;12.70;;;4.82;;
18407;SDS011;9330;52.210;21.174;2023-02-01T13:40:52;13.52;;;4.28;;
18407;SDS011;9330;52.210;21.174;2023-02-01T13:43:29;16.75;;;5.05;;
18407;SDS011;9330;52.210;21.174;2023-02-01T13:45:57;15.40;;;4.50;;
18407;SDS011;9330;52.210;21.174;2023-02-01T13:48:33;15.05;;;4.10;;
18407;SDS011;9330;52.210;21.174;2023-02-01T13:51:05;11.82;;;4.28;;
18407;SDS011;9330;52.210;21.174;2023-02-01T13:53:34;11.68;;;4.10;;
18407;SDS011;9330;52.210;21.174;2023-02-01T13:56:05;11.00;;;4.05;;
18407;SDS011;9330;52.210;21.174;2023-02-01T13:58:38;6.57;;;3.00;;
18407;SDS011;9330;52.210;21.174;2023-02-01T14:07:16;13.20;;;3.40;;
18407;SDS011;9330;52.210;21.174;2023-02-01T14:09:56;8.63;;;3.22;;
18407;SDS011;9330;52.210;21.174;2023-02-01T14:15:19;9.90;;;3.65;;
18407;SDS011;9330;52.210;21.174;2023-02-01T14:17:48;10.45;;;3.50;;
18407;SDS011;9330;52.210;21.174;2023-02-01T14:23:24;11.18;;;4.15;;
18407;SDS011;9330;52.210;21.174;2023-02-01T14:28:53;8.10;;;3.40;;
18407;SDS011;9330;52.210;21.174;2023-02-01T14:31:34;10.57;;;3.65;;
18407;SDS011;9330;52.210;21.174;2023-02-01T14:34:11;12.70;;;3.88;;
18407;SDS011;9330;52.210;21.174;2023-02-01T14:36:44;7.15;;;3.30;;
18407;SDS011;9330;52.210;21.174;2023-02-01T14:39:18;7.97;;;3.38;;
18407;SDS011;9330;52.210;21.174;2023-02-01T14:41:59;13.57;;;4.15;;
18407;SDS011;9330;52.210;21.174;2023-02-01T14:44:31;11.20;;;4.30;;
18407;SDS011;9330;52.210;21.174;2023-02-01T14:47:07;9.63;;;3.70;;
18407;SDS011;9330;52.210;21.174;2023-02-01T14:49:37;13.00;;;3.70;;
18407;SDS011;9330;52.210;21.174;2023-02-01T14:52:11;7.38;;;3.53;;
18407;SDS011;9330;52.210;21.174;2023-02-01T14:54:42;9.80;;;3.63;;
18407;SDS011;9330;52.210;21.174;2023-02-01T14:57:13;11.05;;;3.47;;
18407;SDS011;9330;52.210;21.174;2023-02-01T14:59:45;9.25;;;3.63;;
18407;SDS011;9330;52.210;21.174;2023-02-01T15:02:18;8.38;;;3.60;;
18407;SDS011;9330;52.210;21.174;2023-02-01T15:04:53;9.23;;;3.50;;
18407;SDS011;9330;52.210;21.174;2023-02-01T15:07:22;8.95;;;3.83;;
18407;SDS011;9330;52.210;21.174;2023-02-01T15:09:50;8.07;;;3.95;;
18407;SDS011;9330;52.210;21.174;2023-02-01T15:12:22;9.25;;;3.15;;
18407;SDS011;9330;52.210;21.174;2023-02-01T15:15:13;7.03;;;3.10;;
18407;SDS011;9330;52.210;21.174;2023-02-01T15:17:48;8.32;;;3.28;;
18407;SDS011;9330;52.210;21.174;2023-02-01T15:20:17;5.65;;;3.33;;
18407;SDS011;9330;52.210;21.174;2023-02-01T15:22:53;6.30;;;2.80;;
18407;SDS011;9330;52.210;21.174;2023-02-01T15:25:22;5.80;;;2.97;;
18407;SDS011;9330;52.210;21.174;2023-02-01T15:27:51;7.25;;;3.17;;
18407;SDS011;9330;52.210;21.174;2023-02-01T15:30:20;8.40;;;3.67;;
18407;SDS011;9330;52.210;21.174;2023-02-01T15:32:58;5.25;;;2.70;;
18407;SDS011;9330;52.210;21.174;2023-02-01T15:35:35;7.07;;;2.80;;
18407;SDS011;9330;52.210;21.174;2023-02-01T15:38:18;6.75;;;3.55;;